Fallon Naval Air Station /Van Voorhis Field
KNFL : rendu visible

Aérodrome :











RETROUVEZ-NOUS SUR...

 
LOGIN :

S'inscrire | Disclaimer

   EN    FR    IT 

 









Légende :    VFR   VFR Marginal   IFR   IFR Intensif   IFR Très Intensif
Visi : 
Plafond : 
>= 8 km
>= 3000ft
5 à 8 km
1000 à 3000 ft
1500m à 5 km
500 à 1000 ft
800 à 1500m
200 à 500 ft
< 800m
< 200 ft
Symboles :   Orages  Brouillard  Fortes neiges  Fortes précipitations  Vent > 20 kt






- Altitude de l'aérodrome : 3934 ft


KNFL - Fallon Naval Air Station /Van Voorhis Field

DERNIER METAR :
  • 120956Z AUTO 18005KT 10SM CLR 00/M07 A3026 RMK AO2 SLP209 T00001067 $

METARs EXPIRÉS :
  • 120856Z AUTO 00000KT 10SM CLR 02/M06 A3027 RMK AO2 SLP212 T00221056 53001 $
  • 120756Z AUTO 00000KT 10SM CLR 01/M05 A3027 RMK AO2 SLP212 T00111050 401831022 $

TAF TAF KNFL
Valide du 12 à 07h jusqu'au 13 à 07h UTC


1207/1307 VRB06KT 9999 FEW180 QNH3019INS
BECMG 1214/1215 VRB06KT 9999 SCT150 652008 QNH3009INS AUTOMATED SENSOR METWATCH 1207 TIL 1215 TM01/1214Z T18/1223Z FS30118



MET'MAP, la Météo Aéronautique d'un coup d'oeil ! - Copyright ORBIFLY Décembre 2007 - Disclaimer

ORBIFLY MET'MAP TEAM :

Programmation & Développement : Alexandra Zaïnal
Conception & Développement : Baudouin d'Aumeries
Co-Programmation & Développement : Marc-Olivier Méhu
Soutien technique & logistique : Manuel Goepfert

Contact : metmap@orbifly.com




SOURCES & CREDITS :

   NOAA       Earth
Advisory